sensor_id;sensor_type;location;lat;lon;timestamp;P1;durP1;ratioP1;P2;durP2;ratioP2
24407;SDS011;12542;50.924;4.516;2023-02-11T00:00:08;17.10;;;7.25;;
24407;SDS011;12542;50.924;4.516;2023-02-11T00:02:35;12.70;;;6.13;;
24407;SDS011;12542;50.924;4.516;2023-02-11T00:05:00;15.82;;;6.35;;
24407;SDS011;12542;50.924;4.516;2023-02-11T00:07:30;18.13;;;6.70;;
24407;SDS011;12542;50.924;4.516;2023-02-11T00:09:56;15.60;;;6.38;;
24407;SDS011;12542;50.924;4.516;2023-02-11T00:12:22;11.07;;;5.88;;
24407;SDS011;12542;50.924;4.516;2023-02-11T00:14:48;16.27;;;5.70;;
24407;SDS011;12542;50.924;4.516;2023-02-11T00:17:15;12.68;;;5.93;;
24407;SDS011;12542;50.924;4.516;2023-02-11T00:19:41;17.80;;;6.00;;
24407;SDS011;12542;50.924;4.516;2023-02-11T00:22:06;14.70;;;5.53;;
24407;SDS011;12542;50.924;4.516;2023-02-11T00:24:32;13.85;;;6.35;;
24407;SDS011;12542;50.924;4.516;2023-02-11T00:27:00;15.95;;;7.03;;
24407;SDS011;12542;50.924;4.516;2023-02-11T00:29:26;19.63;;;6.03;;
24407;SDS011;12542;50.924;4.516;2023-02-11T00:31:52;13.77;;;6.07;;
24407;SDS011;12542;50.924;4.516;2023-02-11T00:34:19;14.13;;;5.30;;
24407;SDS011;12542;50.924;4.516;2023-02-11T00:36:44;19.20;;;6.07;;
24407;SDS011;12542;50.924;4.516;2023-02-11T00:39:10;16.38;;;6.25;;
24407;SDS011;12542;50.924;4.516;2023-02-11T00:41:36;20.60;;;5.72;;
24407;SDS011;12542;50.924;4.516;2023-02-11T00:44:04;16.40;;;6.38;;
24407;SDS011;12542;50.924;4.516;2023-02-11T00:46:29;21.55;;;6.45;;
24407;SDS011;12542;50.924;4.516;2023-02-11T00:48:55;17.38;;;6.70;;
24407;SDS011;12542;50.924;4.516;2023-02-11T00:51:25;18.27;;;6.40;;
24407;SDS011;12542;50.924;4.516;2023-02-11T00:53:52;14.10;;;5.80;;
24407;SDS011;12542;50.924;4.516;2023-02-11T00:56:18;17.67;;;6.43;;
24407;SDS011;12542;50.924;4.516;2023-02-11T00:58:44;21.40;;;6.10;;
24407;SDS011;12542;50.924;4.516;2023-02-11T01:01:10;18.48;;;6.40;;
24407;SDS011;12542;50.924;4.516;2023-02-11T01:03:36;11.38;;;5.82;;
24407;SDS011;12542;50.924;4.516;2023-02-11T01:06:02;10.90;;;5.32;;
24407;SDS011;12542;50.924;4.516;2023-02-11T01:08:29;18.17;;;6.40;;
24407;SDS011;12542;50.924;4.516;2023-02-11T01:10:59;22.80;;;6.53;;
24407;SDS011;12542;50.924;4.516;2023-02-11T01:13:26;22.10;;;7.00;;
24407;SDS011;12542;50.924;4.516;2023-02-11T01:15:53;13.70;;;6.03;;
24407;SDS011;12542;50.924;4.516;2023-02-11T01:18:19;18.75;;;6.22;;
24407;SDS011;12542;50.924;4.516;2023-02-11T01:20:45;14.40;;;5.90;;
24407;SDS011;12542;50.924;4.516;2023-02-11T01:23:10;19.42;;;6.82;;
24407;SDS011;12542;50.924;4.516;2023-02-11T01:25:36;16.83;;;5.82;;
24407;SDS011;12542;50.924;4.516;2023-02-11T01:28:02;18.30;;;5.93;;
24407;SDS011;12542;50.924;4.516;2023-02-11T01:30:27;20.02;;;6.25;;
24407;SDS011;12542;50.924;4.516;2023-02-11T01:32:53;18.27;;;6.40;;
24407;SDS011;12542;50.924;4.516;2023-02-11T01:35:19;22.83;;;5.45;;
24407;SDS011;12542;50.924;4.516;2023-02-11T01:37:45;15.50;;;6.43;;
24407;SDS011;12542;50.924;4.516;2023-02-11T01:40:12;18.05;;;6.32;;
24407;SDS011;12542;50.924;4.516;2023-02-11T01:42:43;18.77;;;6.25;;
24407;SDS011;12542;50.924;4.516;2023-02-11T01:45:53;19.05;;;5.95;;
24407;SDS011;12542;50.924;4.516;2023-02-11T01:48:11;17.02;;;4.93;;
24407;SDS011;12542;50.924;4.516;2023-02-11T01:50:42;17.48;;;6.10;;
24407;SDS011;12542;50.924;4.516;2023-02-11T01:53:12;16.70;;;5.82;;
24407;SDS011;12542;50.924;4.516;2023-02-11T01:56:04;17.27;;;5.88;;
24407;SDS011;12542;50.924;4.516;2023-02-11T01:58:50;17.35;;;6.10;;
24407;SDS011;12542;50.924;4.516;2023-02-11T02:01:20;15.75;;;5.28;;
24407;SDS011;12542;50.924;4.516;2023-02-11T02:03:49;17.75;;;6.97;;
24407;SDS011;12542;50.924;4.516;2023-02-11T02:06:39;17.00;;;6.18;;
24407;SDS011;12542;50.924;4.516;2023-02-11T02:09:21;10.57;;;5.88;;
24407;SDS011;12542;50.924;4.516;2023-02-11T02:11:50;15.43;;;6.22;;
24407;SDS011;12542;50.924;4.516;2023-02-11T02:14:16;16.67;;;5.72;;
24407;SDS011;12542;50.924;4.516;2023-02-11T02:16:42;17.45;;;6.13;;
24407;SDS011;12542;50.924;4.516;2023-02-11T02:33:23;22.48;;;6.68;;
24407;SDS011;12542;50.924;4.516;2023-02-11T02:36:17;15.68;;;5.88;;
24407;SDS011;12542;50.924;4.516;2023-02-11T02:39:09;14.27;;;5.82;;
24407;SDS011;12542;50.924;4.516;2023-02-11T02:41:41;11.95;;;5.10;;
24407;SDS011;12542;50.924;4.516;2023-02-11T02:44:09;16.55;;;5.28;;
24407;SDS011;12542;50.924;4.516;2023-02-11T02:46:36;15.77;;;5.50;;
24407;SDS011;12542;50.924;4.516;2023-02-11T02:49:02;18.80;;;7.45;;
24407;SDS011;12542;50.924;4.516;2023-02-11T03:02:32;22.35;;;6.47;;
24407;SDS011;12542;50.924;4.516;2023-02-11T03:05:10;11.15;;;5.45;;
24407;SDS011;12542;50.924;4.516;2023-02-11T03:07:47;18.85;;;5.50;;
24407;SDS011;12542;50.924;4.516;2023-02-11T03:10:23;21.85;;;6.38;;
24407;SDS011;12542;50.924;4.516;2023-02-11T03:12:56;14.43;;;5.63;;
24407;SDS011;12542;50.924;4.516;2023-02-11T03:15:23;17.98;;;5.30;;
24407;SDS011;12542;50.924;4.516;2023-02-11T03:17:52;14.50;;;5.05;;
24407;SDS011;12542;50.924;4.516;2023-02-11T03:20:22;13.07;;;5.70;;
24407;SDS011;12542;50.924;4.516;2023-02-11T03:22:49;12.52;;;5.70;;
24407;SDS011;12542;50.924;4.516;2023-02-11T03:25:19;16.08;;;5.60;;
24407;SDS011;12542;50.924;4.516;2023-02-11T03:28:01;17.27;;;6.32;;
24407;SDS011;12542;50.924;4.516;2023-02-11T03:30:35;15.45;;;6.00;;
24407;SDS011;12542;50.924;4.516;2023-02-11T03:33:06;19.30;;;5.90;;
24407;SDS011;12542;50.924;4.516;2023-02-11T03:35:39;12.03;;;5.47;;
24407;SDS011;12542;50.924;4.516;2023-02-11T03:38:16;15.13;;;5.85;;
24407;SDS011;12542;50.924;4.516;2023-02-11T03:40:46;17.42;;;6.80;;
24407;SDS011;12542;50.924;4.516;2023-02-11T03:43:25;14.95;;;5.60;;
24407;SDS011;12542;50.924;4.516;2023-02-11T03:45:56;15.10;;;6.03;;
24407;SDS011;12542;50.924;4.516;2023-02-11T03:50:48;18.80;;;5.75;;
24407;SDS011;12542;50.924;4.516;2023-02-11T03:53:15;13.82;;;6.25;;
24407;SDS011;12542;50.924;4.516;2023-02-11T03:55:43;16.27;;;6.00;;
24407;SDS011;12542;50.924;4.516;2023-02-11T03:58:11;16.15;;;6.50;;
24407;SDS011;12542;50.924;4.516;2023-02-11T04:00:38;17.60;;;6.32;;
24407;SDS011;12542;50.924;4.516;2023-02-11T04:03:07;14.35;;;6.10;;
24407;SDS011;12542;50.924;4.516;2023-02-11T04:05:36;14.90;;;6.50;;
24407;SDS011;12542;50.924;4.516;2023-02-11T04:08:03;16.98;;;5.93;;
24407;SDS011;12542;50.924;4.516;2023-02-11T04:10:29;23.25;;;8.23;;
24407;SDS011;12542;50.924;4.516;2023-02-11T04:12:55;16.90;;;7.00;;
24407;SDS011;12542;50.924;4.516;2023-02-11T04:15:20;19.45;;;7.03;;
24407;SDS011;12542;50.924;4.516;2023-02-11T04:17:46;15.27;;;7.20;;
24407;SDS011;12542;50.924;4.516;2023-02-11T04:20:12;17.17;;;6.88;;
24407;SDS011;12542;50.924;4.516;2023-02-11T04:22:37;18.13;;;7.43;;
24407;SDS011;12542;50.924;4.516;2023-02-11T04:25:04;16.08;;;7.15;;
24407;SDS011;12542;50.924;4.516;2023-02-11T04:27:30;15.90;;;6.63;;
24407;SDS011;12542;50.924;4.516;2023-02-11T04:30:00;15.55;;;6.80;;
24407;SDS011;12542;50.924;4.516;2023-02-11T04:32:26;17.33;;;7.63;;
24407;SDS011;12542;50.924;4.516;2023-02-11T04:34:51;24.65;;;8.10;;
24407;SDS011;12542;50.924;4.516;2023-02-11T04:37:18;15.20;;;6.93;;
24407;SDS011;12542;50.924;4.516;2023-02-11T04:39:44;21.27;;;8.25;;
24407;SDS011;12542;50.924;4.516;2023-02-11T04:42:10;13.07;;;6.70;;
24407;SDS011;12542;50.924;4.516;2023-02-11T04:44:36;18.65;;;8.05;;
24407;SDS011;12542;50.924;4.516;2023-02-11T04:47:02;18.38;;;8.10;;
24407;SDS011;12542;50.924;4.516;2023-02-11T04:49:27;27.58;;;8.15;;
24407;SDS011;12542;50.924;4.516;2023-02-11T04:51:53;19.27;;;7.40;;
24407;SDS011;12542;50.924;4.516;2023-02-11T04:54:21;19.20;;;7.05;;
24407;SDS011;12542;50.924;4.516;2023-02-11T04:56:47;15.35;;;7.68;;
24407;SDS011;12542;50.924;4.516;2023-02-11T04:59:13;23.15;;;8.32;;
24407;SDS011;12542;50.924;4.516;2023-02-11T05:01:39;16.77;;;7.93;;
24407;SDS011;12542;50.924;4.516;2023-02-11T05:04:05;18.35;;;7.50;;
24407;SDS011;12542;50.924;4.516;2023-02-11T05:06:31;14.63;;;7.22;;
24407;SDS011;12542;50.924;4.516;2023-02-11T05:08:57;19.13;;;7.65;;
24407;SDS011;12542;50.924;4.516;2023-02-11T05:11:23;22.63;;;8.77;;
24407;SDS011;12542;50.924;4.516;2023-02-11T05:13:50;19.70;;;8.13;;
24407;SDS011;12542;50.924;4.516;2023-02-11T05:16:16;15.85;;;8.25;;
24407;SDS011;12542;50.924;4.516;2023-02-11T05:18:42;15.60;;;8.52;;
24407;SDS011;12542;50.924;4.516;2023-02-11T05:21:10;24.92;;;9.85;;
24407;SDS011;12542;50.924;4.516;2023-02-11T05:23:40;22.15;;;8.98;;
24407;SDS011;12542;50.924;4.516;2023-02-11T05:26:06;22.75;;;9.63;;
24407;SDS011;12542;50.924;4.516;2023-02-11T05:28:32;17.70;;;9.07;;
24407;SDS011;12542;50.924;4.516;2023-02-11T05:30:59;20.42;;;8.95;;
24407;SDS011;12542;50.924;4.516;2023-02-11T05:33:25;16.88;;;8.63;;
24407;SDS011;12542;50.924;4.516;2023-02-11T05:35:55;19.02;;;9.10;;
24407;SDS011;12542;50.924;4.516;2023-02-11T05:38:23;20.67;;;8.77;;
24407;SDS011;12542;50.924;4.516;2023-02-11T05:40:49;22.50;;;9.98;;
24407;SDS011;12542;50.924;4.516;2023-02-11T05:43:15;24.00;;;10.85;;
24407;SDS011;12542;50.924;4.516;2023-02-11T05:45:41;25.52;;;10.40;;
24407;SDS011;12542;50.924;4.516;2023-02-11T05:48:06;21.25;;;10.13;;
24407;SDS011;12542;50.924;4.516;2023-02-11T05:50:32;18.60;;;9.50;;
24407;SDS011;12542;50.924;4.516;2023-02-11T05:52:57;20.15;;;10.18;;
24407;SDS011;12542;50.924;4.516;2023-02-11T05:55:23;24.40;;;10.90;;
24407;SDS011;12542;50.924;4.516;2023-02-11T05:57:49;27.00;;;11.02;;
24407;SDS011;12542;50.924;4.516;2023-02-11T06:00:15;19.85;;;10.48;;
24407;SDS011;12542;50.924;4.516;2023-02-11T06:02:41;22.48;;;11.40;;
24407;SDS011;12542;50.924;4.516;2023-02-11T06:05:07;22.15;;;10.13;;
24407;SDS011;12542;50.924;4.516;2023-02-11T06:07:33;24.48;;;11.10;;
24407;SDS011;12542;50.924;4.516;2023-02-11T06:09:59;25.83;;;11.35;;
24407;SDS011;12542;50.924;4.516;2023-02-11T06:12:25;22.25;;;10.85;;
24407;SDS011;12542;50.924;4.516;2023-02-11T06:14:51;23.15;;;10.60;;
24407;SDS011;12542;50.924;4.516;2023-02-11T06:17:17;23.70;;;10.90;;
24407;SDS011;12542;50.924;4.516;2023-02-11T06:19:42;31.27;;;11.40;;
24407;SDS011;12542;50.924;4.516;2023-02-11T06:22:08;20.92;;;10.85;;
24407;SDS011;12542;50.924;4.516;2023-02-11T06:24:34;21.55;;;10.65;;
24407;SDS011;12542;50.924;4.516;2023-02-11T06:27:01;26.10;;;11.55;;
24407;SDS011;12542;50.924;4.516;2023-02-11T06:29:28;23.05;;;11.77;;
24407;SDS011;12542;50.924;4.516;2023-02-11T06:31:53;25.00;;;10.98;;
24407;SDS011;12542;50.924;4.516;2023-02-11T06:34:19;24.55;;;11.88;;
24407;SDS011;12542;50.924;4.516;2023-02-11T06:36:45;23.40;;;11.85;;
24407;SDS011;12542;50.924;4.516;2023-02-11T06:39:11;25.80;;;13.25;;
24407;SDS011;12542;50.924;4.516;2023-02-11T06:41:37;27.70;;;12.30;;
24407;SDS011;12542;50.924;4.516;2023-02-11T06:44:03;28.23;;;13.63;;
24407;SDS011;12542;50.924;4.516;2023-02-11T06:46:29;25.85;;;13.00;;
24407;SDS011;12542;50.924;4.516;2023-02-11T06:48:54;27.50;;;13.43;;
24407;SDS011;12542;50.924;4.516;2023-02-11T06:51:20;31.38;;;13.57;;
24407;SDS011;12542;50.924;4.516;2023-02-11T06:53:46;28.65;;;13.30;;
24407;SDS011;12542;50.924;4.516;2023-02-11T06:56:14;28.38;;;13.05;;
24407;SDS011;12542;50.924;4.516;2023-02-11T06:58:41;30.40;;;14.18;;
24407;SDS011;12542;50.924;4.516;2023-02-11T07:01:07;27.48;;;13.57;;
24407;SDS011;12542;50.924;4.516;2023-02-11T07:03:36;29.75;;;13.65;;
24407;SDS011;12542;50.924;4.516;2023-02-11T07:06:03;29.23;;;14.75;;
24407;SDS011;12542;50.924;4.516;2023-02-11T07:08:33;28.85;;;13.60;;
24407;SDS011;12542;50.924;4.516;2023-02-11T07:11:00;33.53;;;14.27;;
24407;SDS011;12542;50.924;4.516;2023-02-11T07:13:32;29.45;;;14.13;;
24407;SDS011;12542;50.924;4.516;2023-02-11T07:15:57;27.58;;;14.30;;
24407;SDS011;12542;50.924;4.516;2023-02-11T07:18:23;35.35;;;15.48;;
24407;SDS011;12542;50.924;4.516;2023-02-11T07:20:49;30.33;;;15.10;;
24407;SDS011;12542;50.924;4.516;2023-02-11T07:23:15;28.20;;;15.13;;
24407;SDS011;12542;50.924;4.516;2023-02-11T07:25:40;34.75;;;15.77;;
24407;SDS011;12542;50.924;4.516;2023-02-11T07:28:06;32.85;;;15.90;;
24407;SDS011;12542;50.924;4.516;2023-02-11T07:30:32;29.48;;;16.85;;
24407;SDS011;12542;50.924;4.516;2023-02-11T07:33:00;32.05;;;15.77;;
24407;SDS011;12542;50.924;4.516;2023-02-11T07:35:25;32.20;;;15.57;;
24407;SDS011;12542;50.924;4.516;2023-02-11T07:37:51;35.55;;;17.55;;
24407;SDS011;12542;50.924;4.516;2023-02-11T07:40:17;33.25;;;17.38;;
24407;SDS011;12542;50.924;4.516;2023-02-11T07:42:42;36.08;;;17.60;;
24407;SDS011;12542;50.924;4.516;2023-02-11T07:45:08;35.30;;;17.15;;
24407;SDS011;12542;50.924;4.516;2023-02-11T07:47:34;37.22;;;17.60;;
24407;SDS011;12542;50.924;4.516;2023-02-11T07:50:01;36.60;;;16.42;;
24407;SDS011;12542;50.924;4.516;2023-02-11T07:52:29;30.58;;;17.15;;
24407;SDS011;12542;50.924;4.516;2023-02-11T07:54:55;36.55;;;16.58;;
24407;SDS011;12542;50.924;4.516;2023-02-11T07:57:21;35.65;;;16.88;;
24407;SDS011;12542;50.924;4.516;2023-02-11T07:59:50;39.22;;;18.60;;
24407;SDS011;12542;50.924;4.516;2023-02-11T08:02:17;35.88;;;17.75;;
24407;SDS011;12542;50.924;4.516;2023-02-11T08:04:44;31.95;;;17.58;;
24407;SDS011;12542;50.924;4.516;2023-02-11T08:07:13;33.70;;;17.48;;
24407;SDS011;12542;50.924;4.516;2023-02-11T08:09:39;41.83;;;17.45;;
24407;SDS011;12542;50.924;4.516;2023-02-11T08:12:05;34.83;;;17.17;;
24407;SDS011;12542;50.924;4.516;2023-02-11T08:14:31;35.95;;;17.35;;
24407;SDS011;12542;50.924;4.516;2023-02-11T08:16:57;36.85;;;17.17;;
24407;SDS011;12542;50.924;4.516;2023-02-11T08:19:22;32.28;;;17.35;;
24407;SDS011;12542;50.924;4.516;2023-02-11T08:21:48;38.55;;;17.92;;
24407;SDS011;12542;50.924;4.516;2023-02-11T08:24:14;32.00;;;16.58;;
24407;SDS011;12542;50.924;4.516;2023-02-11T08:26:40;37.00;;;17.05;;
24407;SDS011;12542;50.924;4.516;2023-02-11T08:29:08;35.30;;;17.08;;
24407;SDS011;12542;50.924;4.516;2023-02-11T08:31:38;38.90;;;18.00;;
24407;SDS011;12542;50.924;4.516;2023-02-11T08:34:06;37.13;;;17.55;;
24407;SDS011;12542;50.924;4.516;2023-02-11T08:36:32;40.35;;;17.95;;
24407;SDS011;12542;50.924;4.516;2023-02-11T08:39:02;36.72;;;19.17;;
24407;SDS011;12542;50.924;4.516;2023-02-11T08:41:31;37.95;;;18.67;;
24407;SDS011;12542;50.924;4.516;2023-02-11T08:43:57;36.38;;;17.95;;
24407;SDS011;12542;50.924;4.516;2023-02-11T08:46:23;37.28;;;19.25;;
24407;SDS011;12542;50.924;4.516;2023-02-11T08:48:49;35.40;;;17.98;;
24407;SDS011;12542;50.924;4.516;2023-02-11T08:51:16;36.30;;;18.67;;
24407;SDS011;12542;50.924;4.516;2023-02-11T08:53:45;33.33;;;18.35;;
24407;SDS011;12542;50.924;4.516;2023-02-11T08:56:11;41.83;;;19.45;;
24407;SDS011;12542;50.924;4.516;2023-02-11T08:58:39;38.60;;;19.77;;
24407;SDS011;12542;50.924;4.516;2023-02-11T09:01:12;45.72;;;19.67;;
24407;SDS011;12542;50.924;4.516;2023-02-11T09:03:39;41.35;;;18.75;;
24407;SDS011;12542;50.924;4.516;2023-02-11T09:06:05;44.15;;;20.75;;
24407;SDS011;12542;50.924;4.516;2023-02-11T09:08:36;41.25;;;19.20;;
24407;SDS011;12542;50.924;4.516;2023-02-11T09:11:03;44.97;;;20.70;;
24407;SDS011;12542;50.924;4.516;2023-02-11T09:13:29;41.65;;;19.60;;
24407;SDS011;12542;50.924;4.516;2023-02-11T09:15:56;44.90;;;21.48;;
24407;SDS011;12542;50.924;4.516;2023-02-11T09:18:22;48.22;;;22.70;;
24407;SDS011;12542;50.924;4.516;2023-02-11T09:20:48;46.90;;;21.20;;
24407;SDS011;12542;50.924;4.516;2023-02-11T09:23:14;48.55;;;19.95;;
24407;SDS011;12542;50.924;4.516;2023-02-11T09:25:40;44.00;;;21.27;;
24407;SDS011;12542;50.924;4.516;2023-02-11T09:28:06;46.35;;;21.40;;
24407;SDS011;12542;50.924;4.516;2023-02-11T09:30:33;45.85;;;21.27;;
24407;SDS011;12542;50.924;4.516;2023-02-11T09:33:01;44.63;;;21.17;;
24407;SDS011;12542;50.924;4.516;2023-02-11T09:35:27;48.00;;;20.77;;
24407;SDS011;12542;50.924;4.516;2023-02-11T09:37:56;42.72;;;21.75;;
24407;SDS011;12542;50.924;4.516;2023-02-11T09:40:22;46.97;;;21.80;;
24407;SDS011;12542;50.924;4.516;2023-02-11T09:43:04;50.03;;;22.58;;
24407;SDS011;12542;50.924;4.516;2023-02-11T09:45:35;46.63;;;21.58;;
24407;SDS011;12542;50.924;4.516;2023-02-11T09:48:03;46.28;;;22.55;;
24407;SDS011;12542;50.924;4.516;2023-02-11T09:50:41;55.45;;;23.95;;
24407;SDS011;12542;50.924;4.516;2023-02-11T09:53:13;57.03;;;24.30;;
24407;SDS011;12542;50.924;4.516;2023-02-11T09:55:56;53.78;;;25.00;;
24407;SDS011;12542;50.924;4.516;2023-02-11T09:58:25;65.75;;;37.05;;
24407;SDS011;12542;50.924;4.516;2023-02-11T10:18:23;54.40;;;25.48;;
24407;SDS011;12542;50.924;4.516;2023-02-11T10:21:05;58.03;;;25.85;;
24407;SDS011;12542;50.924;4.516;2023-02-11T10:24:11;59.63;;;26.05;;
24407;SDS011;12542;50.924;4.516;2023-02-11T10:26:38;57.70;;;25.65;;
24407;SDS011;12542;50.924;4.516;2023-02-11T10:29:11;52.80;;;25.60;;
24407;SDS011;12542;50.924;4.516;2023-02-11T10:31:55;48.65;;;24.67;;
24407;SDS011;12542;50.924;4.516;2023-02-11T10:34:21;56.92;;;24.98;;
24407;SDS011;12542;50.924;4.516;2023-02-11T10:36:47;58.42;;;26.05;;
24407;SDS011;12542;50.924;4.516;2023-02-11T10:39:17;57.28;;;24.65;;
24407;SDS011;12542;50.924;4.516;2023-02-11T10:42:04;50.10;;;24.25;;
24407;SDS011;12542;50.924;4.516;2023-02-11T10:44:35;52.80;;;24.80;;
24407;SDS011;12542;50.924;4.516;2023-02-11T10:47:23;54.53;;;24.87;;
24407;SDS011;12542;50.924;4.516;2023-02-11T10:49:52;58.70;;;26.00;;
24407;SDS011;12542;50.924;4.516;2023-02-11T10:52:20;55.75;;;23.52;;
24407;SDS011;12542;50.924;4.516;2023-02-11T10:57:25;55.75;;;25.02;;
24407;SDS011;12542;50.924;4.516;2023-02-11T11:00:05;50.80;;;23.65;;
24407;SDS011;12542;50.924;4.516;2023-02-11T11:02:41;50.28;;;23.70;;
24407;SDS011;12542;50.924;4.516;2023-02-11T11:07:55;56.25;;;24.90;;
24407;SDS011;12542;50.924;4.516;2023-02-11T11:13:31;47.38;;;22.30;;
24407;SDS011;12542;50.924;4.516;2023-02-11T11:16:06;47.42;;;22.08;;
24407;SDS011;12542;50.924;4.516;2023-02-11T11:18:45;50.15;;;23.23;;
24407;SDS011;12542;50.924;4.516;2023-02-11T11:21:23;44.67;;;22.75;;
24407;SDS011;12542;50.924;4.516;2023-02-11T11:24:00;56.58;;;24.00;;
24407;SDS011;12542;50.924;4.516;2023-02-11T11:26:28;47.15;;;23.65;;
24407;SDS011;12542;50.924;4.516;2023-02-11T11:29:08;49.45;;;23.23;;
24407;SDS011;12542;50.924;4.516;2023-02-11T11:31:45;47.78;;;22.17;;
24407;SDS011;12542;50.924;4.516;2023-02-11T11:36:54;48.60;;;23.38;;
24407;SDS011;12542;50.924;4.516;2023-02-11T11:47:06;53.85;;;24.83;;
24407;SDS011;12542;50.924;4.516;2023-02-11T11:49:48;53.17;;;23.95;;
24407;SDS011;12542;50.924;4.516;2023-02-11T11:52:43;50.10;;;23.20;;
24407;SDS011;12542;50.924;4.516;2023-02-11T11:55:26;51.30;;;24.42;;
24407;SDS011;12542;50.924;4.516;2023-02-11T11:57:54;52.25;;;23.55;;
24407;SDS011;12542;50.924;4.516;2023-02-11T12:00:21;51.00;;;24.27;;
24407;SDS011;12542;50.924;4.516;2023-02-11T12:11:08;50.75;;;23.88;;
24407;SDS011;12542;50.924;4.516;2023-02-11T12:19:36;52.60;;;25.25;;
24407;SDS011;12542;50.924;4.516;2023-02-11T12:24:58;51.30;;;24.35;;
24407;SDS011;12542;50.924;4.516;2023-02-11T12:45:07;56.75;;;26.25;;
24407;SDS011;12542;50.924;4.516;2023-02-11T12:50:57;50.10;;;24.98;;
24407;SDS011;12542;50.924;4.516;2023-02-11T12:56:23;58.63;;;26.10;;
24407;SDS011;12542;50.924;4.516;2023-02-11T12:58:56;55.13;;;25.63;;
24407;SDS011;12542;50.924;4.516;2023-02-11T13:01:31;53.28;;;25.98;;
24407;SDS011;12542;50.924;4.516;2023-02-11T13:06:42;47.15;;;25.38;;
24407;SDS011;12542;50.924;4.516;2023-02-11T13:09:18;53.72;;;26.02;;
24407;SDS011;12542;50.924;4.516;2023-02-11T13:11:57;54.75;;;26.30;;
24407;SDS011;12542;50.924;4.516;2023-02-11T13:14:49;51.40;;;25.10;;
24407;SDS011;12542;50.924;4.516;2023-02-11T13:17:24;54.03;;;25.40;;
24407;SDS011;12542;50.924;4.516;2023-02-11T13:19:58;110.65;;;66.43;;
24407;SDS011;12542;50.924;4.516;2023-02-11T13:22:37;99.65;;;50.28;;
24407;SDS011;12542;50.924;4.516;2023-02-11T13:28:08;142.93;;;74.10;;
24407;SDS011;12542;50.924;4.516;2023-02-11T13:31:04;62.58;;;31.92;;
24407;SDS011;12542;50.924;4.516;2023-02-11T13:33:38;52.30;;;25.83;;
24407;SDS011;12542;50.924;4.516;2023-02-11T13:38:32;50.97;;;24.35;;
24407;SDS011;12542;50.924;4.516;2023-02-11T13:43:32;48.47;;;24.13;;
24407;SDS011;12542;50.924;4.516;2023-02-11T13:46:03;52.47;;;26.23;;
24407;SDS011;12542;50.924;4.516;2023-02-11T13:48:34;52.63;;;26.70;;
24407;SDS011;12542;50.924;4.516;2023-02-11T13:51:06;51.15;;;28.10;;
24407;SDS011;12542;50.924;4.516;2023-02-11T13:59:00;51.70;;;25.00;;
24407;SDS011;12542;50.924;4.516;2023-02-11T14:13:24;56.47;;;26.45;;
24407;SDS011;12542;50.924;4.516;2023-02-11T14:19:16;49.85;;;26.20;;
24407;SDS011;12542;50.924;4.516;2023-02-11T14:26:28;51.67;;;27.65;;
24407;SDS011;12542;50.924;4.516;2023-02-11T14:29:08;52.78;;;27.75;;
24407;SDS011;12542;50.924;4.516;2023-02-11T14:31:53;55.20;;;26.63;;
24407;SDS011;12542;50.924;4.516;2023-02-11T14:37:42;52.17;;;26.38;;
24407;SDS011;12542;50.924;4.516;2023-02-11T14:43:00;62.75;;;27.08;;
24407;SDS011;12542;50.924;4.516;2023-02-11T14:45:35;50.78;;;26.42;;
24407;SDS011;12542;50.924;4.516;2023-02-11T14:48:06;49.08;;;25.15;;
24407;SDS011;12542;50.924;4.516;2023-02-11T14:53:30;49.00;;;26.33;;
24407;SDS011;12542;50.924;4.516;2023-02-11T14:55:57;53.33;;;26.75;;
24407;SDS011;12542;50.924;4.516;2023-02-11T15:00:53;51.42;;;26.95;;
24407;SDS011;12542;50.924;4.516;2023-02-11T15:03:34;48.05;;;26.73;;
24407;SDS011;12542;50.924;4.516;2023-02-11T15:08:47;52.65;;;26.85;;
24407;SDS011;12542;50.924;4.516;2023-02-11T15:11:37;51.70;;;26.00;;
24407;SDS011;12542;50.924;4.516;2023-02-11T15:17:11;52.35;;;28.83;;
24407;SDS011;12542;50.924;4.516;2023-02-11T15:19:41;49.13;;;26.73;;
24407;SDS011;12542;50.924;4.516;2023-02-11T15:22:18;58.93;;;26.30;;
24407;SDS011;12542;50.924;4.516;2023-02-11T15:25:06;50.78;;;26.33;;
24407;SDS011;12542;50.924;4.516;2023-02-11T15:27:39;51.20;;;26.13;;
24407;SDS011;12542;50.924;4.516;2023-02-11T15:30:18;46.60;;;25.73;;
24407;SDS011;12542;50.924;4.516;2023-02-11T15:32:48;52.63;;;26.40;;
24407;SDS011;12542;50.924;4.516;2023-02-11T15:35:14;54.38;;;27.63;;
24407;SDS011;12542;50.924;4.516;2023-02-11T15:37:42;48.83;;;27.15;;
24407;SDS011;12542;50.924;4.516;2023-02-11T15:40:10;47.45;;;27.67;;
24407;SDS011;12542;50.924;4.516;2023-02-11T15:42:40;51.47;;;28.45;;
24407;SDS011;12542;50.924;4.516;2023-02-11T15:53:46;51.55;;;27.10;;
24407;SDS011;12542;50.924;4.516;2023-02-11T15:58:51;52.80;;;28.92;;
24407;SDS011;12542;50.924;4.516;2023-02-11T16:01:29;47.67;;;25.98;;
24407;SDS011;12542;50.924;4.516;2023-02-11T16:03:57;48.45;;;27.38;;
24407;SDS011;12542;50.924;4.516;2023-02-11T16:06:24;50.75;;;27.83;;
24407;SDS011;12542;50.924;4.516;2023-02-11T16:16:48;51.65;;;28.20;;
24407;SDS011;12542;50.924;4.516;2023-02-11T16:19:17;51.80;;;29.30;;
24407;SDS011;12542;50.924;4.516;2023-02-11T16:21:45;50.63;;;28.75;;
24407;SDS011;12542;50.924;4.516;2023-02-11T16:27:04;52.33;;;29.05;;
24407;SDS011;12542;50.924;4.516;2023-02-11T16:29:40;48.35;;;28.05;;
24407;SDS011;12542;50.924;4.516;2023-02-11T16:34:42;49.13;;;27.83;;
24407;SDS011;12542;50.924;4.516;2023-02-11T16:37:07;52.50;;;28.75;;
24407;SDS011;12542;50.924;4.516;2023-02-11T16:39:33;50.65;;;27.38;;
24407;SDS011;12542;50.924;4.516;2023-02-11T16:41:59;51.40;;;28.13;;
24407;SDS011;12542;50.924;4.516;2023-02-11T16:44:26;50.97;;;27.73;;
24407;SDS011;12542;50.924;4.516;2023-02-11T16:46:52;51.28;;;27.73;;
24407;SDS011;12542;50.924;4.516;2023-02-11T16:49:28;51.60;;;29.63;;
24407;SDS011;12542;50.924;4.516;2023-02-11T16:51:57;48.58;;;28.17;;
24407;SDS011;12542;50.924;4.516;2023-02-11T16:54:27;51.60;;;28.75;;
24407;SDS011;12542;50.924;4.516;2023-02-11T16:56:55;51.58;;;29.75;;
24407;SDS011;12542;50.924;4.516;2023-02-11T16:59:21;54.45;;;29.23;;
24407;SDS011;12542;50.924;4.516;2023-02-11T17:01:47;54.63;;;29.40;;
24407;SDS011;12542;50.924;4.516;2023-02-11T17:04:19;54.25;;;29.85;;
24407;SDS011;12542;50.924;4.516;2023-02-11T17:06:48;53.25;;;29.55;;
24407;SDS011;12542;50.924;4.516;2023-02-11T17:09:15;53.58;;;28.70;;
24407;SDS011;12542;50.924;4.516;2023-02-11T17:11:42;58.67;;;29.55;;
24407;SDS011;12542;50.924;4.516;2023-02-11T17:14:08;51.72;;;29.58;;
24407;SDS011;12542;50.924;4.516;2023-02-11T17:16:34;48.50;;;28.02;;
24407;SDS011;12542;50.924;4.516;2023-02-11T17:18:59;55.90;;;30.50;;
24407;SDS011;12542;50.924;4.516;2023-02-11T17:21:27;58.08;;;32.63;;
24407;SDS011;12542;50.924;4.516;2023-02-11T17:23:55;55.47;;;30.92;;
24407;SDS011;12542;50.924;4.516;2023-02-11T17:26:21;59.75;;;31.77;;
24407;SDS011;12542;50.924;4.516;2023-02-11T17:28:47;53.80;;;30.58;;
24407;SDS011;12542;50.924;4.516;2023-02-11T17:31:13;55.03;;;31.98;;
24407;SDS011;12542;50.924;4.516;2023-02-11T17:33:39;51.58;;;29.50;;
24407;SDS011;12542;50.924;4.516;2023-02-11T17:36:05;57.33;;;31.73;;
24407;SDS011;12542;50.924;4.516;2023-02-11T17:38:33;55.88;;;30.95;;
24407;SDS011;12542;50.924;4.516;2023-02-11T17:41:00;59.28;;;32.65;;